createdAt,value
2022-11-25T00:00:20.552Z,71.72
2022-11-25T00:02:27.346Z,72.26
2022-11-25T00:04:37.429Z,71.72
2022-11-25T00:06:46.908Z,71.52
2022-11-25T00:08:58.452Z,72.25
2022-11-25T00:11:09.165Z,71.62
2022-11-25T00:13:15.780Z,71.36
2022-11-25T00:15:25.307Z,71.77
2022-11-25T00:17:32.729Z,71.46
2022-11-25T00:19:39.461Z,72.18
2022-11-25T00:21:46.508Z,71.32
2022-11-25T00:23:56.484Z,71.87
2022-11-25T00:26:10.672Z,72.04
2022-11-25T00:28:17.647Z,72.55
2022-11-25T00:30:27.893Z,73.24
2022-11-25T00:32:34.671Z,72.96
2022-11-25T00:34:41.254Z,73.38
2022-11-25T00:36:48.996Z,73.28
2022-11-25T00:38:59.800Z,73.15
2022-11-25T00:41:24.153Z,73.29
2022-11-25T00:43:47.162Z,72.99
2022-11-25T00:45:57.243Z,73.37
2022-11-25T00:48:08.703Z,72.84
2022-11-25T00:50:16.520Z,73.82
2022-11-25T00:52:27.627Z,73.27
2022-11-25T00:54:34.675Z,72.75
2022-11-25T00:56:42.736Z,73.56
2022-11-25T00:58:49.752Z,72.91
2022-11-25T01:03:55.984Z,73.01
2022-11-25T01:06:06.543Z,72.98
2022-11-25T01:08:14.675Z,72.98
2022-11-25T01:10:21.559Z,73.41
2022-11-25T01:12:29.156Z,72.92
2022-11-25T01:14:37.611Z,73.12
2022-11-25T01:16:44.449Z,72.86
2022-11-25T01:18:55.494Z,73.07
2022-11-25T01:21:10.111Z,72.51
2022-11-25T01:23:16.861Z,73.29
2022-11-25T01:25:24.363Z,72.55
2022-11-25T01:27:30.995Z,72.85
2022-11-25T01:29:37.684Z,73.13
2022-11-25T01:31:46.706Z,72.96
2022-11-25T01:34:03.599Z,73.24
2022-11-25T01:36:14.556Z,73.57
2022-11-25T01:38:37.913Z,73.45
2022-11-25T01:40:44.767Z,73.51
2022-11-25T01:42:52.592Z,73.19
2022-11-25T01:45:37.687Z,73.94
2022-11-25T01:47:44.876Z,74.15
2022-11-25T01:50:12.905Z,73.33
2022-11-25T01:52:28.060Z,74.08
2022-11-25T01:54:45.699Z,73.39
2022-11-25T01:57:04.455Z,74.33
2022-11-25T01:59:12.841Z,74.02
2022-11-25T02:01:22.068Z,73.48
2022-11-25T02:03:39.991Z,73.59
2022-11-25T02:06:04.620Z,73.87
2022-11-25T02:08:13.830Z,73.67
2022-11-25T02:10:28.710Z,73.71
2022-11-25T02:12:40.237Z,74.00
2022-11-25T02:14:49.533Z,74.40
2022-11-25T02:16:56.856Z,73.88
2022-11-25T02:19:06.930Z,74.76
2022-11-25T02:21:23.645Z,73.92
2022-11-25T02:23:46.589Z,74.21
2022-11-25T02:25:57.908Z,74.50
2022-11-25T02:28:10.937Z,74.05
2022-11-25T02:30:18.255Z,74.43
2022-11-25T02:32:27.271Z,74.57
2022-11-25T02:34:34.109Z,75.06
2022-11-25T02:36:41.105Z,74.35
2022-11-25T02:38:54.069Z,74.91
2022-11-25T02:41:21.287Z,75.32
2022-11-25T02:43:35.748Z,74.84
2022-11-25T02:46:01.366Z,74.76
2022-11-25T02:48:10.459Z,75.49
2022-11-25T02:50:18.643Z,75.64
2022-11-25T02:52:25.270Z,75.32
2022-11-25T02:54:31.912Z,75.46
2022-11-25T02:56:44.871Z,76.02
2022-11-25T02:58:53.054Z,74.89
2022-11-25T03:01:00.028Z,75.42
2022-11-25T03:03:10.242Z,75.03
2022-11-25T03:05:17.134Z,75.39
2022-11-25T03:07:23.854Z,75.80
2022-11-25T03:09:32.523Z,75.35
2022-11-25T03:11:54.984Z,74.91
2022-11-25T03:14:06.729Z,75.47
2022-11-25T03:16:14.540Z,75.05
2022-11-25T03:18:23.984Z,75.38
2022-11-25T03:20:30.676Z,75.29
2022-11-25T03:22:38.737Z,75.82
2022-11-25T03:24:45.417Z,74.89
2022-11-25T03:26:52.124Z,75.12
2022-11-25T03:28:59.658Z,75.30
2022-11-25T03:31:14.332Z,75.07
2022-11-25T03:33:21.038Z,75.30
2022-11-25T03:35:28.537Z,75.29
2022-11-25T03:37:35.270Z,75.40
2022-11-25T03:39:42.126Z,75.68
2022-11-25T03:41:49.890Z,75.58
2022-11-25T03:43:59.092Z,75.76
2022-11-25T03:46:07.970Z,74.89
2022-11-25T03:48:18.304Z,75.71
2022-11-25T03:50:24.936Z,74.97
2022-11-25T03:52:33.958Z,75.03
2022-11-25T03:54:41.823Z,75.40
2022-11-25T03:56:57.164Z,75.74
2022-11-25T03:59:03.855Z,75.33
2022-11-25T04:01:11.704Z,75.55
2022-11-25T04:03:21.547Z,75.13
2022-11-25T04:05:28.824Z,75.24
2022-11-25T04:07:40.355Z,75.53
2022-11-25T04:09:48.253Z,75.22
2022-11-25T04:12:15.315Z,74.92
2022-11-25T04:14:31.089Z,74.87
2022-11-25T04:16:38.383Z,74.47
2022-11-25T04:18:47.842Z,74.78
2022-11-25T04:20:55.547Z,75.13
2022-11-25T04:23:03.400Z,75.43
2022-11-25T04:25:12.736Z,75.24
2022-11-25T04:27:20.672Z,75.62
2022-11-25T04:29:28.507Z,74.84
2022-11-25T04:31:38.247Z,74.70
2022-11-25T04:33:52.555Z,75.04
2022-11-25T04:36:00.682Z,75.22
2022-11-25T04:38:08.791Z,74.85
2022-11-25T04:40:18.724Z,74.86
2022-11-25T04:42:39.727Z,75.42
2022-11-25T04:45:21.003Z,75.89
2022-11-25T04:47:20.753Z,74.56
2022-11-25T04:49:30.273Z,74.27
2022-11-25T04:51:37.141Z,75.17
2022-11-25T04:53:47.917Z,75.00
2022-11-25T04:55:55.379Z,75.45
2022-11-25T04:58:03.928Z,75.66
2022-11-25T05:00:12.767Z,74.60
2022-11-25T05:02:22.821Z,74.92
2022-11-25T05:04:59.653Z,75.52
2022-11-25T05:07:10.233Z,75.46
2022-11-25T05:09:16.963Z,74.85
2022-11-25T05:11:26.528Z,74.95
2022-11-25T05:13:34.073Z,75.00
2022-11-25T05:15:40.716Z,74.68
2022-11-25T05:17:48.605Z,74.45
2022-11-25T05:20:04.923Z,74.20
2022-11-25T05:22:14.765Z,75.30
2022-11-25T05:24:22.530Z,75.20
2022-11-25T05:26:32.869Z,75.20
2022-11-25T05:28:40.331Z,74.06
2022-11-25T05:30:47.720Z,73.93
2022-11-25T05:32:57.438Z,75.32
2022-11-25T05:35:07.814Z,74.12
2022-11-25T05:37:22.721Z,73.96
2022-11-25T05:39:36.802Z,75.12
2022-11-25T05:42:09.605Z,74.72
2022-11-25T05:44:22.624Z,74.50
2022-11-25T05:46:32.218Z,73.81
2022-11-25T05:48:39.016Z,74.68
2022-11-25T05:50:48.981Z,74.03
2022-11-25T05:53:03.943Z,73.94
2022-11-25T05:55:12.024Z,74.99
2022-11-25T05:57:18.747Z,75.02
2022-11-25T05:59:29.587Z,75.25
2022-11-25T06:01:45.328Z,74.32
2022-11-25T06:03:52.402Z,74.07
2022-11-25T06:06:06.005Z,73.90
2022-11-25T06:08:13.504Z,73.78
2022-11-25T06:10:21.665Z,74.43
2022-11-25T06:12:29.778Z,75.23
2022-11-25T06:14:36.592Z,74.71
2022-11-25T06:16:44.496Z,73.27
2022-11-25T06:19:30.896Z,74.67
2022-11-25T06:21:40.708Z,73.92
2022-11-25T06:23:47.971Z,73.71
2022-11-25T06:25:58.755Z,74.62
2022-11-25T06:28:12.804Z,73.77
2022-11-25T06:30:25.053Z,74.16
2022-11-25T06:33:05.922Z,73.80
2022-11-25T06:35:13.506Z,74.66
2022-11-25T06:37:32.595Z,75.05
2022-11-25T06:39:41.930Z,74.17
2022-11-25T06:41:48.639Z,73.93
2022-11-25T06:43:55.324Z,73.33
2022-11-25T06:46:08.160Z,73.28
2022-11-25T06:48:14.782Z,74.63
2022-11-25T06:50:22.062Z,73.49
2022-11-25T06:52:33.929Z,74.54
2022-11-25T06:54:41.731Z,73.44
2022-11-25T06:56:51.735Z,74.57
2022-11-25T06:58:59.553Z,73.78
2022-11-25T07:01:16.774Z,74.10
2022-11-25T07:03:24.011Z,73.97
2022-11-25T07:05:31.653Z,74.54
2022-11-25T07:07:41.186Z,74.41
2022-11-25T07:09:48.113Z,74.83
2022-11-25T07:11:55.582Z,73.04
2022-11-25T07:14:07.779Z,72.76
2022-11-25T07:16:15.573Z,73.03
2022-11-25T07:18:23.527Z,72.76
2022-11-25T07:20:30.445Z,72.55
2022-11-25T07:22:37.082Z,72.82
2022-11-25T07:24:47.401Z,72.11
2022-11-25T07:26:54.005Z,72.06
2022-11-25T07:29:23.529Z,72.83
2022-11-25T07:31:39.194Z,72.83
2022-11-25T07:33:46.860Z,72.66
2022-11-25T07:35:53.420Z,72.66
2022-11-25T07:38:00.873Z,72.72
2022-11-25T07:40:14.192Z,72.51
2022-11-25T07:42:20.791Z,72.20
2022-11-25T07:44:28.659Z,72.27
2022-11-25T07:46:56.934Z,71.96
2022-11-25T07:49:07.827Z,71.32
2022-11-25T07:51:20.426Z,71.26
2022-11-25T07:53:27.044Z,72.11
2022-11-25T07:55:37.829Z,71.70
2022-11-25T07:57:45.302Z,72.25
2022-11-25T07:59:52.111Z,71.26
2022-11-25T08:01:59.645Z,71.61
2022-11-25T08:04:09.702Z,71.33
2022-11-25T08:06:19.792Z,71.21
2022-11-25T08:08:26.473Z,71.29
2022-11-25T08:10:36.826Z,70.54
2022-11-25T08:12:43.527Z,69.83
2022-11-25T08:14:50.261Z,70.78
2022-11-25T08:16:58.008Z,69.70
2022-11-25T08:19:07.860Z,70.26
2022-11-25T08:21:18.485Z,70.69
2022-11-25T08:23:25.972Z,69.79
2022-11-25T08:25:32.984Z,70.54
2022-11-25T08:27:42.630Z,69.94
2022-11-25T08:29:50.354Z,70.52
2022-11-25T08:31:57.419Z,70.49
2022-11-25T08:34:07.713Z,70.20
2022-11-25T08:36:17.596Z,69.73
2022-11-25T08:38:24.951Z,69.62
2022-11-25T08:40:31.892Z,69.17
2022-11-25T08:42:42.212Z,69.12
2022-11-25T08:44:48.924Z,68.94
2022-11-25T08:46:55.897Z,69.45
2022-11-25T08:49:03.992Z,68.99
2022-11-25T08:51:18.095Z,68.66
2022-11-25T08:53:25.852Z,69.64
2022-11-25T08:55:33.625Z,69.90
2022-11-25T08:57:43.268Z,69.97
2022-11-25T08:59:50.189Z,69.48
2022-11-25T09:01:58.522Z,68.96
2022-11-25T09:04:08.508Z,69.71
2022-11-25T09:06:16.173Z,69.18
2022-11-25T09:08:24.167Z,68.42
2022-11-25T09:10:31.249Z,68.18
2022-11-25T09:12:38.491Z,68.13
2022-11-25T09:14:48.888Z,68.58
2022-11-25T09:16:57.235Z,68.50
2022-11-25T09:19:05.554Z,68.57
2022-11-25T09:21:18.051Z,68.69
2022-11-25T09:23:25.843Z,67.81
2022-11-25T09:25:33.471Z,67.60
2022-11-25T09:27:41.258Z,67.86
2022-11-25T09:29:50.679Z,67.76
2022-11-25T09:31:57.415Z,67.36
2022-11-25T09:34:10.045Z,67.50
2022-11-25T09:36:20.531Z,67.35
2022-11-25T09:38:27.355Z,67.26
2022-11-25T09:40:46.648Z,66.88
2022-11-25T09:43:25.806Z,67.14
2022-11-25T09:46:08.764Z,67.23
2022-11-25T09:48:41.747Z,66.72
2022-11-25T09:51:07.739Z,67.41
2022-11-25T09:53:40.140Z,67.17
2022-11-25T09:56:01.190Z,67.45
2022-11-25T09:58:35.866Z,67.21
2022-11-25T10:00:49.854Z,67.18
2022-11-25T10:03:13.006Z,67.27
2022-11-25T10:05:28.666Z,66.79
2022-11-25T10:07:44.757Z,66.57
2022-11-25T10:09:52.464Z,66.85
2022-11-25T10:12:08.469Z,66.14
2022-11-25T10:14:29.496Z,66.26
2022-11-25T10:17:08.135Z,66.29
2022-11-25T10:19:55.398Z,66.09
2022-11-25T10:22:27.261Z,66.46
2022-11-25T10:24:38.441Z,66.87
2022-11-25T10:26:56.516Z,66.51
2022-11-25T10:29:26.054Z,66.31
2022-11-25T10:31:42.521Z,65.44
2022-11-25T10:33:53.148Z,65.96
2022-11-25T10:36:11.068Z,65.92
2022-11-25T10:38:29.229Z,65.25
2022-11-25T10:40:36.034Z,65.69
2022-11-25T10:42:43.632Z,66.05
2022-11-25T10:44:50.384Z,65.95
2022-11-25T10:47:35.873Z,66.04
2022-11-25T10:50:04.017Z,65.41
2022-11-25T10:52:17.054Z,65.52
2022-11-25T10:54:28.293Z,65.17
2022-11-25T10:56:49.035Z,65.08
2022-11-25T10:58:58.100Z,64.98
2022-11-25T11:01:19.790Z,64.36
2022-11-25T11:03:30.658Z,65.26
2022-11-25T11:05:43.707Z,65.03
2022-11-25T11:08:20.091Z,65.75
2022-11-25T11:10:29.692Z,65.95
2022-11-25T11:12:36.604Z,66.05
2022-11-25T11:14:43.772Z,65.53
2022-11-25T11:16:59.933Z,65.40
2022-11-25T11:19:25.955Z,65.83
2022-11-25T11:21:38.315Z,66.05
2022-11-25T11:23:53.966Z,66.00
2022-11-25T11:26:06.949Z,65.36
2022-11-25T11:28:41.738Z,65.24
2022-11-25T11:31:04.326Z,65.64
2022-11-25T11:33:36.004Z,65.36
2022-11-25T11:36:04.230Z,65.75
2022-11-25T11:38:35.182Z,65.41
2022-11-25T11:40:46.812Z,65.32
2022-11-25T11:43:15.095Z,65.20
2022-11-25T11:46:00.970Z,64.77
2022-11-25T11:48:28.717Z,64.90
2022-11-25T11:50:43.197Z,63.90
2022-11-25T11:53:03.967Z,63.89
2022-11-25T11:55:39.585Z,63.53
2022-11-25T11:58:07.198Z,64.33
2022-11-25T12:00:18.304Z,64.65
2022-11-25T12:02:46.860Z,65.08
2022-11-25T12:05:14.752Z,65.66
2022-11-25T12:07:33.283Z,65.12
2022-11-25T12:10:00.025Z,64.84
2022-11-25T12:12:22.284Z,65.30
2022-11-25T12:14:43.250Z,65.72
2022-11-25T12:17:00.467Z,65.59
2022-11-25T12:19:24.166Z,65.63
2022-11-25T12:21:52.828Z,65.68
2022-11-25T12:24:09.670Z,66.21
2022-11-25T12:26:32.837Z,65.74
2022-11-25T12:28:49.076Z,66.16
2022-11-25T12:31:23.230Z,66.13
2022-11-25T12:33:50.062Z,65.96
2022-11-25T12:36:09.869Z,65.89
2022-11-25T12:38:41.390Z,65.93
2022-11-25T12:41:04.334Z,66.23
2022-11-25T12:43:35.575Z,66.47
2022-11-25T12:45:47.388Z,65.95
2022-11-25T12:47:56.594Z,66.54
2022-11-25T12:50:04.050Z,66.61
2022-11-25T12:52:44.195Z,66.77
2022-11-25T12:55:11.916Z,66.96
2022-11-25T12:58:20.108Z,67.62
2022-11-25T13:00:58.124Z,66.61
2022-11-25T13:04:04.991Z,66.97
2022-11-25T13:06:59.650Z,67.42
2022-11-25T13:09:32.974Z,67.33
2022-11-25T13:12:15.001Z,67.84
2022-11-25T13:14:43.447Z,67.27
2022-11-25T13:16:58.184Z,67.66
2022-11-25T13:19:12.413Z,67.85
2022-11-25T13:21:24.240Z,67.51
2022-11-25T13:23:52.301Z,67.42
2022-11-25T13:26:53.589Z,67.45
2022-11-25T13:29:03.751Z,66.49
2022-11-25T13:31:28.163Z,67.04
2022-11-25T13:34:29.057Z,67.06
2022-11-25T13:36:52.036Z,67.35
2022-11-25T13:39:09.936Z,66.91
2022-11-25T13:41:40.392Z,67.03
2022-11-25T13:44:03.785Z,66.80
2022-11-25T13:46:10.802Z,67.57
2022-11-25T13:48:23.939Z,67.62
2022-11-25T13:50:55.354Z,67.29
2022-11-25T13:53:07.575Z,67.29
2022-11-25T13:55:35.040Z,67.98
2022-11-25T13:57:48.415Z,67.77
2022-11-25T14:00:01.007Z,67.87
2022-11-25T14:02:45.181Z,68.02
2022-11-25T14:05:07.897Z,68.07
2022-11-25T14:07:35.528Z,67.86
2022-11-25T14:10:14.001Z,67.84
2022-11-25T14:12:52.228Z,67.82
2022-11-25T14:16:44.046Z,68.03
2022-11-25T14:19:52.476Z,68.03
2022-11-25T14:22:35.986Z,67.67
2022-11-25T14:24:49.836Z,68.08
2022-11-25T14:27:00.715Z,67.85
2022-11-25T14:29:23.648Z,67.46
2022-11-25T14:31:44.645Z,66.94
2022-11-25T14:34:00.105Z,67.26
2022-11-25T14:36:17.574Z,66.94
2022-11-25T14:38:40.145Z,66.88
2022-11-25T14:40:55.712Z,67.08
2022-11-25T14:43:10.979Z,66.70
2022-11-25T14:45:29.719Z,66.88
2022-11-25T14:47:39.229Z,66.67
2022-11-25T14:50:11.817Z,66.79
2022-11-25T14:52:27.042Z,66.12
2022-11-25T14:54:36.673Z,66.65
2022-11-25T14:56:44.310Z,66.46
2022-11-25T14:58:56.123Z,66.15
2022-11-25T15:01:08.385Z,66.39
2022-11-25T15:03:23.433Z,66.14
2022-11-25T15:05:38.657Z,66.38
2022-11-25T15:07:47.158Z,66.45
2022-11-25T15:09:56.722Z,66.60
2022-11-25T15:12:09.019Z,66.46
2022-11-25T15:14:29.165Z,66.43
2022-11-25T15:16:43.694Z,65.92
2022-11-25T15:18:55.204Z,66.38
2022-11-25T15:21:09.399Z,66.72
2022-11-25T15:23:32.144Z,66.58
2022-11-25T15:25:53.504Z,66.68
2022-11-25T15:28:00.064Z,66.64
2022-11-25T15:30:24.023Z,66.36
2022-11-25T15:32:38.152Z,66.44
2022-11-25T15:34:47.357Z,66.49
2022-11-25T15:36:54.951Z,66.85
2022-11-25T15:39:19.450Z,66.49
2022-11-25T15:41:39.683Z,66.64
2022-11-25T15:43:53.222Z,66.73
2022-11-25T15:46:06.382Z,66.58
2022-11-25T15:48:24.381Z,66.72
2022-11-25T15:50:35.357Z,66.49
2022-11-25T15:52:49.923Z,66.38
2022-11-25T15:55:06.595Z,66.43
2022-11-25T15:57:29.914Z,66.30
2022-11-25T15:59:50.584Z,66.21
2022-11-25T16:01:57.692Z,66.25
2022-11-25T16:04:24.221Z,66.40
2022-11-25T16:06:33.248Z,66.41
2022-11-25T16:08:42.186Z,66.44
2022-11-25T16:11:03.490Z,66.35
2022-11-25T16:13:42.691Z,66.59
2022-11-25T16:15:57.284Z,66.54
2022-11-25T16:18:32.481Z,66.39
2022-11-25T16:20:32.476Z,66.10
2022-11-25T16:22:40.843Z,66.30
2022-11-25T16:25:01.861Z,66.26
2022-11-25T16:27:25.599Z,66.63
2022-11-25T16:29:41.085Z,66.57
2022-11-25T16:31:48.251Z,66.73
2022-11-25T16:33:59.566Z,66.86
2022-11-25T16:36:09.489Z,66.92
2022-11-25T16:38:16.351Z,67.20
2022-11-25T16:40:24.729Z,67.17
2022-11-25T16:42:37.251Z,67.26
2022-11-25T16:44:52.471Z,67.18
2022-11-25T16:47:01.123Z,66.79
2022-11-25T16:49:16.786Z,66.88
2022-11-25T16:51:26.911Z,67.26
2022-11-25T16:53:34.410Z,67.87
2022-11-25T16:55:45.691Z,67.91
2022-11-25T16:57:54.540Z,68.18
2022-11-25T17:00:08.974Z,68.17
2022-11-25T17:02:21.859Z,67.73
2022-11-25T17:04:28.619Z,67.87
2022-11-25T17:06:37.460Z,67.94
2022-11-25T17:08:44.819Z,67.96
2022-11-25T17:10:52.964Z,68.01
2022-11-25T17:13:01.011Z,67.96
2022-11-25T17:15:19.980Z,67.87
2022-11-25T17:17:30.377Z,67.98
2022-11-25T17:19:38.308Z,67.77
2022-11-25T17:21:45.522Z,67.64
2022-11-25T17:23:55.170Z,67.42
2022-11-25T17:26:03.682Z,68.20
2022-11-25T17:28:19.335Z,68.22
2022-11-25T17:30:32.645Z,68.46
2022-11-25T17:32:40.176Z,68.37
2022-11-25T17:34:47.007Z,68.37
2022-11-25T17:36:53.598Z,68.44
2022-11-25T17:39:01.379Z,68.18
2022-11-25T17:41:16.149Z,68.08
2022-11-25T17:43:24.407Z,68.20
2022-11-25T17:45:34.970Z,68.01
2022-11-25T17:47:41.757Z,68.09
2022-11-25T17:49:49.704Z,68.34
2022-11-25T17:51:57.256Z,68.34
2022-11-25T17:54:03.919Z,68.08
2022-11-25T17:56:27.152Z,68.04
2022-11-25T17:58:34.631Z,68.40
2022-11-25T18:00:46.739Z,68.53
2022-11-25T18:02:53.910Z,68.38
2022-11-25T18:05:03.291Z,68.70
2022-11-25T18:07:11.015Z,69.13
2022-11-25T18:09:17.654Z,69.09
2022-11-25T18:11:25.259Z,69.07
2022-11-25T18:13:42.656Z,68.80
2022-11-25T18:15:52.353Z,68.42
2022-11-25T18:18:06.070Z,68.80
2022-11-25T18:20:22.671Z,68.47
2022-11-25T18:22:30.816Z,68.23
2022-11-25T18:24:38.612Z,68.29
2022-11-25T18:26:50.377Z,68.38
2022-11-25T18:28:59.904Z,67.64
2022-11-25T18:31:15.909Z,67.18
2022-11-25T18:33:23.242Z,67.77
2022-11-25T18:35:36.790Z,67.91
2022-11-25T18:37:44.382Z,67.67
2022-11-25T18:39:52.437Z,67.88
2022-11-25T18:42:00.160Z,67.60
2022-11-25T18:44:25.831Z,67.67
2022-11-25T18:46:41.228Z,67.66
2022-11-25T18:48:47.819Z,67.04
2022-11-25T18:50:58.065Z,67.40
2022-11-25T18:53:06.547Z,67.47
2022-11-25T18:55:15.638Z,67.36
2022-11-25T18:57:23.756Z,67.29
2022-11-25T18:59:37.475Z,66.94
2022-11-25T19:01:49.998Z,66.95
2022-11-25T19:03:58.037Z,67.81
2022-11-25T19:06:06.578Z,67.91
2022-11-25T19:08:13.220Z,67.53
2022-11-25T19:10:22.191Z,68.04
2022-11-25T19:12:29.694Z,67.47
2022-11-25T19:14:42.601Z,68.09
2022-11-25T19:16:53.101Z,67.70
2022-11-25T19:18:59.767Z,68.79
2022-11-25T19:21:07.946Z,68.15
2022-11-25T19:23:23.163Z,67.95
2022-11-25T19:25:29.952Z,68.13
2022-11-25T19:27:43.691Z,68.41
2022-11-25T19:29:51.563Z,68.86
2022-11-25T19:32:08.565Z,69.38
2022-11-25T19:34:30.090Z,68.78
2022-11-25T19:36:37.957Z,69.26
2022-11-25T19:38:44.561Z,68.99
2022-11-25T19:40:51.687Z,68.73
2022-11-25T19:42:59.523Z,69.28
2022-11-25T19:45:08.884Z,69.09
2022-11-25T19:47:25.205Z,69.75
2022-11-25T19:49:32.686Z,68.66
2022-11-25T19:51:39.503Z,68.73
2022-11-25T19:53:46.118Z,69.69
2022-11-25T19:55:53.552Z,69.94
2022-11-25T19:58:00.653Z,70.13
2022-11-25T20:00:11.275Z,69.32
2022-11-25T20:02:27.055Z,69.43
2022-11-25T20:04:33.774Z,70.29
2022-11-25T20:06:40.531Z,70.24
2022-11-25T20:08:49.963Z,69.96
2022-11-25T20:10:58.563Z,69.55
2022-11-25T20:13:10.432Z,69.22
2022-11-25T20:15:18.736Z,69.04
2022-11-25T20:17:33.943Z,68.89
2022-11-25T20:19:41.152Z,69.24
2022-11-25T20:21:49.953Z,69.14
2022-11-25T20:23:58.019Z,69.04
2022-11-25T20:26:06.577Z,69.44
2022-11-25T20:28:22.167Z,69.29
2022-11-25T20:30:31.966Z,69.45
2022-11-25T20:32:41.805Z,70.10
2022-11-25T20:34:50.012Z,69.47
2022-11-25T20:36:56.879Z,69.79
2022-11-25T20:39:06.645Z,69.82
2022-11-25T20:41:16.523Z,69.32
2022-11-25T20:43:33.389Z,69.91
2022-11-25T20:45:40.391Z,69.49
2022-11-25T20:47:53.135Z,70.67
2022-11-25T20:49:59.853Z,70.44
2022-11-25T20:52:09.474Z,70.34
2022-11-25T20:54:17.990Z,69.46
2022-11-25T20:56:29.868Z,69.01
2022-11-25T20:58:37.248Z,69.14
2022-11-25T21:00:44.966Z,68.85
2022-11-25T21:02:55.923Z,68.96
2022-11-25T21:05:03.563Z,68.79
2022-11-25T21:07:18.144Z,68.84
2022-11-25T21:09:34.748Z,70.07
2022-11-25T21:11:41.504Z,68.74
2022-11-25T21:13:50.021Z,69.49
2022-11-25T21:15:57.802Z,68.91
2022-11-25T21:18:07.742Z,69.25
2022-11-25T21:20:19.511Z,68.73
2022-11-25T21:22:26.507Z,68.64
2022-11-25T21:24:37.958Z,69.04
2022-11-25T21:26:45.839Z,69.14
2022-11-25T21:28:56.128Z,68.83
2022-11-25T21:31:08.397Z,68.56
2022-11-25T21:33:22.207Z,68.04
2022-11-25T21:35:35.672Z,68.14
2022-11-25T21:37:44.731Z,68.14
2022-11-25T21:39:52.538Z,68.39
2022-11-25T21:42:06.256Z,68.18
2022-11-25T21:44:27.291Z,67.63
2022-11-25T21:46:34.758Z,67.54
2022-11-25T21:48:44.559Z,67.16
2022-11-25T21:50:51.895Z,67.53
2022-11-25T21:53:01.148Z,67.17
2022-11-25T21:55:11.968Z,67.30
2022-11-25T21:57:23.196Z,67.26
2022-11-25T21:59:34.019Z,66.83
2022-11-25T22:01:41.076Z,66.80
2022-11-25T22:03:50.485Z,67.08
2022-11-25T22:05:58.927Z,66.57
2022-11-25T22:08:07.806Z,66.85
2022-11-25T22:10:17.601Z,66.85
2022-11-25T22:12:36.756Z,67.06
2022-11-25T22:14:47.923Z,66.86
2022-11-25T22:16:55.398Z,67.00
2022-11-25T22:19:06.710Z,66.84
2022-11-25T22:21:16.953Z,66.95
2022-11-25T22:23:25.405Z,66.84
2022-11-25T22:25:36.113Z,66.67
2022-11-25T22:27:42.921Z,66.86
2022-11-25T22:29:50.349Z,66.61
2022-11-25T22:31:58.043Z,66.75
2022-11-25T22:34:21.408Z,66.64
2022-11-25T22:36:39.956Z,66.81
2022-11-25T22:38:47.389Z,66.82
2022-11-25T22:40:59.513Z,66.90
2022-11-25T22:43:07.186Z,66.92
2022-11-25T22:45:27.374Z,66.81
2022-11-25T22:47:42.650Z,66.83
2022-11-25T22:49:55.127Z,66.43
2022-11-25T22:52:03.845Z,67.24
2022-11-25T22:54:15.211Z,67.88
2022-11-25T22:56:23.300Z,67.28
2022-11-25T22:58:31.865Z,67.45
2022-11-25T23:00:43.210Z,68.34
2022-11-25T23:02:52.512Z,68.30
2022-11-25T23:05:03.489Z,69.34
2022-11-25T23:07:15.241Z,68.66
2022-11-25T23:09:23.161Z,69.64
2022-11-25T23:11:32.023Z,69.96
2022-11-25T23:13:41.517Z,70.08
2022-11-25T23:15:53.415Z,70.30
2022-11-25T23:18:05.996Z,69.49
2022-11-25T23:20:23.855Z,69.70
2022-11-25T23:22:30.423Z,69.83
2022-11-25T23:24:38.276Z,70.39
2022-11-25T23:26:45.680Z,70.13
2022-11-25T23:28:52.787Z,70.34
2022-11-25T23:31:04.123Z,69.81
2022-11-25T23:33:25.586Z,70.07
2022-11-25T23:35:40.680Z,69.46
2022-11-25T23:37:57.796Z,70.22
2022-11-25T23:40:06.077Z,70.30
2022-11-25T23:42:20.946Z,69.50
2022-11-25T23:44:31.846Z,70.05
2022-11-25T23:46:40.406Z,70.48
2022-11-25T23:48:58.899Z,70.26
2022-11-25T23:51:11.334Z,70.29
2022-11-25T23:53:28.244Z,71.14
2022-11-25T23:55:40.458Z,70.79
2022-11-25T23:57:51.294Z,70.99
2022-11-25T23:59:58.209Z,71.83
